Fort Nelson, Canada
Current Conditions -  °F | °C
As of 5:00 PM on Monday 22 Dec 2014 (Local Time) from CYYE Reporting Station
Broken Clouds Broken Clouds  
Wind Chill:   Ceiling: 21000
Heat Index:   Visibility: 15mi
Dew Point:   Wind: 3mph
Humidity: 85%   Direction: 180°S
Pressure: 29.93"   Gusts: NA
Location:  58.8°N, 122.7°W
Report Text: CYYE 230000Z 18003KT 15SM FEW050 BKN210 M13/M15 A2993 RMK SC2CI3 SLP171
Loading
Personal Weather Stations






























Interactive Weather Map New forecast layout! Learn more

10-Day Weather Forecast

Advertisements
Track Severe Weather on mobile